sensor_id;sensor_type;location;lat;lon;timestamp;pressure;altitude;pressure_sealevel;temperature;humidity
86584;BME280;77229;50.498;10.390;2024-03-22T00:01:45;97929.80;;;20.85;40.31
86584;BME280;77229;50.498;10.390;2024-03-22T00:04:15;97931.47;;;20.84;40.28
86584;BME280;77229;50.498;10.390;2024-03-22T00:06:48;97930.08;;;20.82;40.22
86584;BME280;77229;50.498;10.390;2024-03-22T00:09:16;97929.02;;;20.82;40.20
86584;BME280;77229;50.498;10.390;2024-03-22T00:11:47;97929.67;;;20.81;40.21
86584;BME280;77229;50.498;10.390;2024-03-22T00:14:18;97926.45;;;20.81;40.18
86584;BME280;77229;50.498;10.390;2024-03-22T00:16:49;97926.55;;;20.80;40.15
86584;BME280;77229;50.498;10.390;2024-03-22T00:19:19;97929.55;;;20.79;40.13
86584;BME280;77229;50.498;10.390;2024-03-22T00:21:49;97927.61;;;20.78;40.11
86584;BME280;77229;50.498;10.390;2024-03-22T00:24:20;97926.04;;;20.77;40.07
86584;BME280;77229;50.498;10.390;2024-03-22T00:26:50;97927.89;;;20.76;40.10
86584;BME280;77229;50.498;10.390;2024-03-22T00:29:21;97921.30;;;20.75;40.09
86584;BME280;77229;50.498;10.390;2024-03-22T00:31:51;97924.85;;;20.74;40.01
86584;BME280;77229;50.498;10.390;2024-03-22T00:34:22;97919.73;;;20.73;39.95
86584;BME280;77229;50.498;10.390;2024-03-22T00:36:53;97920.39;;;20.72;39.98
86584;BME280;77229;50.498;10.390;2024-03-22T00:39:23;97920.28;;;20.72;39.95
86584;BME280;77229;50.498;10.390;2024-03-22T00:41:54;97916.95;;;20.71;39.99
86584;BME280;77229;50.498;10.390;2024-03-22T00:44:25;97909.91;;;20.70;39.91
86584;BME280;77229;50.498;10.390;2024-03-22T00:46:55;97909.03;;;20.69;39.84
86584;BME280;77229;50.498;10.390;2024-03-22T00:49:26;97910.52;;;20.68;39.83
86584;BME280;77229;50.498;10.390;2024-03-22T00:51:57;97914.86;;;20.67;39.80
86584;BME280;77229;50.498;10.390;2024-03-22T00:54:27;97908.52;;;20.66;39.80
86584;BME280;77229;50.498;10.390;2024-03-22T00:56:58;97903.44;;;20.66;39.80
86584;BME280;77229;50.498;10.390;2024-03-22T00:59:29;97900.13;;;20.65;39.79
86584;BME280;77229;50.498;10.390;2024-03-22T01:01:59;97891.95;;;20.63;39.76
86584;BME280;77229;50.498;10.390;2024-03-22T01:04:31;97888.66;;;20.63;39.76
86584;BME280;77229;50.498;10.390;2024-03-22T01:07:00;97885.94;;;20.62;39.69
86584;BME280;77229;50.498;10.390;2024-03-22T01:09:32;97889.82;;;20.61;39.71
86584;BME280;77229;50.498;10.390;2024-03-22T01:12:01;97890.98;;;20.60;39.67
86584;BME280;77229;50.498;10.390;2024-03-22T01:14:32;97887.22;;;20.60;39.67
86584;BME280;77229;50.498;10.390;2024-03-22T01:17:03;97882.91;;;20.58;39.63
86584;BME280;77229;50.498;10.390;2024-03-22T01:19:33;97887.32;;;20.57;39.63
86584;BME280;77229;50.498;10.390;2024-03-22T01:22:04;97884.47;;;20.57;39.58
86584;BME280;77229;50.498;10.390;2024-03-22T01:24:33;97877.27;;;20.56;39.59
86584;BME280;77229;50.498;10.390;2024-03-22T01:27:05;97875.46;;;20.55;39.54
86584;BME280;77229;50.498;10.390;2024-03-22T01:29:35;97868.70;;;20.53;39.53
86584;BME280;77229;50.498;10.390;2024-03-22T01:32:05;97862.41;;;20.52;39.50
86584;BME280;77229;50.498;10.390;2024-03-22T01:34:36;97860.17;;;20.51;39.49
86584;BME280;77229;50.498;10.390;2024-03-22T01:37:06;97854.33;;;20.50;39.48
86584;BME280;77229;50.498;10.390;2024-03-22T01:39:36;97858.61;;;20.49;39.45
86584;BME280;77229;50.498;10.390;2024-03-22T01:42:06;97853.97;;;20.48;39.42
86584;BME280;77229;50.498;10.390;2024-03-22T01:44:37;97854.14;;;20.47;39.40
86584;BME280;77229;50.498;10.390;2024-03-22T01:47:08;97852.73;;;20.46;39.40
86584;BME280;77229;50.498;10.390;2024-03-22T01:49:38;97851.52;;;20.44;39.38
86584;BME280;77229;50.498;10.390;2024-03-22T01:52:09;97853.01;;;20.44;39.39
86584;BME280;77229;50.498;10.390;2024-03-22T01:54:39;97850.41;;;20.43;39.38
86584;BME280;77229;50.498;10.390;2024-03-22T01:57:09;97848.83;;;20.41;39.36
86584;BME280;77229;50.498;10.390;2024-03-22T01:59:40;97850.40;;;20.40;39.32
86584;BME280;77229;50.498;10.390;2024-03-22T02:02:12;97850.89;;;20.40;39.32
86584;BME280;77229;50.498;10.390;2024-03-22T02:04:40;97851.66;;;20.39;39.32
86584;BME280;77229;50.498;10.390;2024-03-22T02:07:11;97848.72;;;20.38;39.26
86584;BME280;77229;50.498;10.390;2024-03-22T02:09:41;97844.30;;;20.37;39.26
86584;BME280;77229;50.498;10.390;2024-03-22T02:12:12;97842.25;;;20.36;39.19
86584;BME280;77229;50.498;10.390;2024-03-22T02:14:43;97837.84;;;20.35;39.25
86584;BME280;77229;50.498;10.390;2024-03-22T02:17:13;97835.17;;;20.34;39.20
86584;BME280;77229;50.498;10.390;2024-03-22T02:19:44;97828.87;;;20.33;39.17
86584;BME280;77229;50.498;10.390;2024-03-22T02:22:14;97820.78;;;20.32;39.18
86584;BME280;77229;50.498;10.390;2024-03-22T02:24:45;97820.06;;;20.31;39.19
86584;BME280;77229;50.498;10.390;2024-03-22T02:27:15;97821.62;;;20.31;39.14
86584;BME280;77229;50.498;10.390;2024-03-22T02:29:46;97825.41;;;20.30;39.14
86584;BME280;77229;50.498;10.390;2024-03-22T02:32:17;97821.16;;;20.29;39.14
86584;BME280;77229;50.498;10.390;2024-03-22T02:34:47;97816.44;;;20.29;39.11
86584;BME280;77229;50.498;10.390;2024-03-22T02:37:17;97816.38;;;20.28;39.10
86584;BME280;77229;50.498;10.390;2024-03-22T02:39:48;97811.23;;;20.27;39.08
86584;BME280;77229;50.498;10.390;2024-03-22T02:42:19;97807.56;;;20.27;39.06
86584;BME280;77229;50.498;10.390;2024-03-22T02:44:49;97805.73;;;20.27;39.07
86584;BME280;77229;50.498;10.390;2024-03-22T02:47:20;97805.29;;;20.26;39.08
86584;BME280;77229;50.498;10.390;2024-03-22T02:49:50;97808.91;;;20.26;39.00
86584;BME280;77229;50.498;10.390;2024-03-22T02:52:21;97808.41;;;20.26;39.00
86584;BME280;77229;50.498;10.390;2024-03-22T02:54:51;97807.72;;;20.25;38.95
86584;BME280;77229;50.498;10.390;2024-03-22T02:57:22;97802.59;;;20.25;38.92
86584;BME280;77229;50.498;10.390;2024-03-22T02:59:52;97798.77;;;20.24;38.96
86584;BME280;77229;50.498;10.390;2024-03-22T03:02:23;97800.21;;;20.24;38.93
86584;BME280;77229;50.498;10.390;2024-03-22T03:04:53;97800.88;;;20.22;38.92
86584;BME280;77229;50.498;10.390;2024-03-22T03:07:24;97802.59;;;20.21;38.92
86584;BME280;77229;50.498;10.390;2024-03-22T03:09:55;97797.69;;;20.21;38.90
86584;BME280;77229;50.498;10.390;2024-03-22T03:12:25;97797.41;;;20.19;38.86
86584;BME280;77229;50.498;10.390;2024-03-22T03:14:56;97797.30;;;20.19;38.86
86584;BME280;77229;50.498;10.390;2024-03-22T03:17:26;97801.47;;;20.19;38.83
86584;BME280;77229;50.498;10.390;2024-03-22T03:19:57;97801.59;;;20.17;38.75
86584;BME280;77229;50.498;10.390;2024-03-22T03:22:28;97802.75;;;20.16;38.77
86584;BME280;77229;50.498;10.390;2024-03-22T03:24:58;97799.73;;;20.16;38.73
86584;BME280;77229;50.498;10.390;2024-03-22T03:27:29;97800.80;;;20.15;38.71
86584;BME280;77229;50.498;10.390;2024-03-22T03:30:01;97795.33;;;20.14;38.67
86584;BME280;77229;50.498;10.390;2024-03-22T03:32:30;97794.53;;;20.13;38.72
86584;BME280;77229;50.498;10.390;2024-03-22T03:35:01;97793.49;;;20.12;38.65
86584;BME280;77229;50.498;10.390;2024-03-22T03:37:31;97791.14;;;20.11;38.63
86584;BME280;77229;50.498;10.390;2024-03-22T03:40:02;97781.88;;;20.10;38.64
86584;BME280;77229;50.498;10.390;2024-03-22T03:42:32;97775.20;;;20.10;38.63
86584;BME280;77229;50.498;10.390;2024-03-22T03:45:02;97773.65;;;20.09;38.60
86584;BME280;77229;50.498;10.390;2024-03-22T03:47:34;97773.71;;;20.08;38.58
86584;BME280;77229;50.498;10.390;2024-03-22T03:50:03;97764.95;;;20.07;38.55
86584;BME280;77229;50.498;10.390;2024-03-22T03:52:35;97761.61;;;20.06;38.53
86584;BME280;77229;50.498;10.390;2024-03-22T03:55:05;97756.83;;;20.05;38.56
86584;BME280;77229;50.498;10.390;2024-03-22T03:57:35;97753.87;;;20.04;38.50
86584;BME280;77229;50.498;10.390;2024-03-22T04:00:06;97753.42;;;20.03;38.46
86584;BME280;77229;50.498;10.390;2024-03-22T04:02:36;97750.53;;;20.02;38.44
86584;BME280;77229;50.498;10.390;2024-03-22T04:05:07;97746.78;;;20.01;38.46
86584;BME280;77229;50.498;10.390;2024-03-22T04:07:37;97743.95;;;20.00;38.41
86584;BME280;77229;50.498;10.390;2024-03-22T04:10:08;97745.98;;;19.99;38.40
86584;BME280;77229;50.498;10.390;2024-03-22T04:12:38;97747.50;;;19.97;38.42
86584;BME280;77229;50.498;10.390;2024-03-22T04:15:12;97752.28;;;19.96;38.40
86584;BME280;77229;50.498;10.390;2024-03-22T04:17:40;97753.06;;;19.95;38.40
86584;BME280;77229;50.498;10.390;2024-03-22T04:20:13;97753.66;;;19.94;38.36
86584;BME280;77229;50.498;10.390;2024-03-22T04:22:41;97753.17;;;19.93;38.34
86584;BME280;77229;50.498;10.390;2024-03-22T04:25:11;97751.42;;;19.92;38.36
86584;BME280;77229;50.498;10.390;2024-03-22T04:27:42;97757.56;;;19.91;38.36
86584;BME280;77229;50.498;10.390;2024-03-22T04:30:13;97758.88;;;19.90;38.35
86584;BME280;77229;50.498;10.390;2024-03-22T04:32:45;97760.00;;;19.88;38.30
86584;BME280;77229;50.498;10.390;2024-03-22T04:35:14;97760.83;;;19.88;38.33
86584;BME280;77229;50.498;10.390;2024-03-22T04:37:43;97756.14;;;19.87;38.31
86584;BME280;77229;50.498;10.390;2024-03-22T04:40:14;97749.91;;;19.85;38.26
86584;BME280;77229;50.498;10.390;2024-03-22T04:42:45;97747.08;;;19.84;38.26
86584;BME280;77229;50.498;10.390;2024-03-22T04:45:15;97739.66;;;19.83;38.27
86584;BME280;77229;50.498;10.390;2024-03-22T04:47:46;97736.53;;;19.83;38.25
86584;BME280;77229;50.498;10.390;2024-03-22T04:50:16;97733.37;;;19.81;38.23
86584;BME280;77229;50.498;10.390;2024-03-22T04:52:47;97728.73;;;19.81;38.28
86584;BME280;77229;50.498;10.390;2024-03-22T04:55:17;97735.18;;;19.80;38.28
86584;BME280;77229;50.498;10.390;2024-03-22T04:57:48;97733.52;;;19.78;38.26
86584;BME280;77229;50.498;10.390;2024-03-22T05:00:19;97729.83;;;19.78;38.26
86584;BME280;77229;50.498;10.390;2024-03-22T05:02:50;97732.73;;;19.77;38.25
86584;BME280;77229;50.498;10.390;2024-03-22T05:05:20;97728.72;;;19.76;38.27
86584;BME280;77229;50.498;10.390;2024-03-22T05:07:51;97727.89;;;19.75;38.22
86584;BME280;77229;50.498;10.390;2024-03-22T05:10:21;97719.69;;;19.73;38.25
86584;BME280;77229;50.498;10.390;2024-03-22T05:12:52;97711.01;;;19.73;38.26
86584;BME280;77229;50.498;10.390;2024-03-22T05:15:22;97709.07;;;19.72;38.25
86584;BME280;77229;50.498;10.390;2024-03-22T05:17:55;97704.88;;;19.71;38.30
86584;BME280;77229;50.498;10.390;2024-03-22T05:20:24;97701.64;;;19.70;38.33
86584;BME280;77229;50.498;10.390;2024-03-22T05:22:54;97699.44;;;19.70;38.39
86584;BME280;77229;50.498;10.390;2024-03-22T05:25:26;97697.30;;;19.68;38.43
86584;BME280;77229;50.498;10.390;2024-03-22T05:27:56;97698.58;;;19.68;38.48
86584;BME280;77229;50.498;10.390;2024-03-22T05:30:26;97695.83;;;19.67;38.48
86584;BME280;77229;50.498;10.390;2024-03-22T05:32:57;97697.78;;;19.67;38.50
86584;BME280;77229;50.498;10.390;2024-03-22T05:35:27;97694.20;;;19.66;38.49
86584;BME280;77229;50.498;10.390;2024-03-22T05:37:58;97693.16;;;19.65;38.51
86584;BME280;77229;50.498;10.390;2024-03-22T05:40:28;97695.31;;;19.64;38.53
86584;BME280;77229;50.498;10.390;2024-03-22T05:42:59;97693.80;;;19.64;38.53
86584;BME280;77229;50.498;10.390;2024-03-22T05:45:29;97693.09;;;19.63;38.56
86584;BME280;77229;50.498;10.390;2024-03-22T05:48:00;97691.30;;;19.62;38.56
86584;BME280;77229;50.498;10.390;2024-03-22T05:50:31;97685.02;;;19.62;38.56
86584;BME280;77229;50.498;10.390;2024-03-22T05:53:02;97687.44;;;19.61;38.58
86584;BME280;77229;50.498;10.390;2024-03-22T05:55:33;97690.84;;;19.60;38.61
86584;BME280;77229;50.498;10.390;2024-03-22T05:58:03;97693.62;;;19.60;38.63
86584;BME280;77229;50.498;10.390;2024-03-22T06:00:34;97689.83;;;19.59;38.66
86584;BME280;77229;50.498;10.390;2024-03-22T06:03:04;97688.40;;;19.58;38.67
86584;BME280;77229;50.498;10.390;2024-03-22T06:05:35;97681.55;;;19.57;38.67
86584;BME280;77229;50.498;10.390;2024-03-22T06:08:06;97682.48;;;19.57;38.67
86584;BME280;77229;50.498;10.390;2024-03-22T06:10:37;97678.77;;;19.55;38.70
86584;BME280;77229;50.498;10.390;2024-03-22T06:13:07;97669.08;;;19.55;38.73
86584;BME280;77229;50.498;10.390;2024-03-22T06:15:38;97662.68;;;19.55;38.74
86584;BME280;77229;50.498;10.390;2024-03-22T06:18:09;97659.22;;;19.55;38.78
86584;BME280;77229;50.498;10.390;2024-03-22T06:20:39;97660.51;;;19.53;38.81
86584;BME280;77229;50.498;10.390;2024-03-22T06:23:10;97660.06;;;19.53;38.83
86584;BME280;77229;50.498;10.390;2024-03-22T06:25:40;97658.16;;;19.52;38.87
86584;BME280;77229;50.498;10.390;2024-03-22T06:28:11;97657.77;;;19.52;38.88
86584;BME280;77229;50.498;10.390;2024-03-22T06:30:41;97660.66;;;19.52;38.91
86584;BME280;77229;50.498;10.390;2024-03-22T06:33:12;97655.70;;;19.52;38.95
86584;BME280;77229;50.498;10.390;2024-03-22T06:35:43;97654.25;;;19.51;39.00
86584;BME280;77229;50.498;10.390;2024-03-22T06:38:13;97653.44;;;19.51;39.05
86584;BME280;77229;50.498;10.390;2024-03-22T06:40:44;97647.31;;;19.50;39.10
86584;BME280;77229;50.498;10.390;2024-03-22T06:43:14;97651.25;;;19.50;39.16
86584;BME280;77229;50.498;10.390;2024-03-22T06:45:44;97647.46;;;19.50;39.22
86584;BME280;77229;50.498;10.390;2024-03-22T06:48:18;97648.97;;;19.50;39.25
86584;BME280;77229;50.498;10.390;2024-03-22T06:50:45;97644.61;;;19.49;39.34
86584;BME280;77229;50.498;10.390;2024-03-22T06:53:16;97651.87;;;19.49;39.40
86584;BME280;77229;50.498;10.390;2024-03-22T06:55:47;97652.48;;;19.48;39.47
86584;BME280;77229;50.498;10.390;2024-03-22T06:58:17;97647.86;;;19.49;39.49
86584;BME280;77229;50.498;10.390;2024-03-22T07:00:47;97643.13;;;19.48;39.54
86584;BME280;77229;50.498;10.390;2024-03-22T07:03:18;97639.45;;;19.48;39.60
86584;BME280;77229;50.498;10.390;2024-03-22T07:05:49;97638.95;;;19.48;39.66
86584;BME280;77229;50.498;10.390;2024-03-22T07:08:19;97633.77;;;19.47;39.72
86584;BME280;77229;50.498;10.390;2024-03-22T07:10:50;97636.62;;;19.46;39.77
86584;BME280;77229;50.498;10.390;2024-03-22T07:13:20;97632.20;;;19.46;39.82
86584;BME280;77229;50.498;10.390;2024-03-22T07:15:53;97631.45;;;19.46;39.89
86584;BME280;77229;50.498;10.390;2024-03-22T07:18:24;97634.66;;;19.46;39.91
86584;BME280;77229;50.498;10.390;2024-03-22T07:20:52;97640.05;;;19.46;39.95
86584;BME280;77229;50.498;10.390;2024-03-22T07:23:23;97642.17;;;19.46;40.01
86584;BME280;77229;50.498;10.390;2024-03-22T07:25:53;97644.23;;;19.46;40.05
86584;BME280;77229;50.498;10.390;2024-03-22T07:28:24;97643.05;;;19.45;40.11
86584;BME280;77229;50.498;10.390;2024-03-22T07:30:55;97637.88;;;19.45;40.15
86584;BME280;77229;50.498;10.390;2024-03-22T07:33:24;97637.11;;;19.45;40.23
86584;BME280;77229;50.498;10.390;2024-03-22T07:35:55;97631.04;;;19.45;40.25
86584;BME280;77229;50.498;10.390;2024-03-22T07:38:25;97628.16;;;19.46;40.30
86584;BME280;77229;50.498;10.390;2024-03-22T07:40:56;97629.94;;;19.45;40.34
86584;BME280;77229;50.498;10.390;2024-03-22T07:43:26;97626.55;;;19.46;40.40
86584;BME280;77229;50.498;10.390;2024-03-22T07:45:57;97622.48;;;19.46;40.41
86584;BME280;77229;50.498;10.390;2024-03-22T07:48:27;97619.91;;;19.47;40.41
86584;BME280;77229;50.498;10.390;2024-03-22T07:50:59;97624.36;;;19.46;40.45
86584;BME280;77229;50.498;10.390;2024-03-22T07:53:28;97622.36;;;19.46;40.49
86584;BME280;77229;50.498;10.390;2024-03-22T07:56:01;97614.42;;;19.46;40.50
86584;BME280;77229;50.498;10.390;2024-03-22T07:58:29;97616.08;;;19.47;40.51
86584;BME280;77229;50.498;10.390;2024-03-22T08:01:00;97614.41;;;19.47;40.52
86584;BME280;77229;50.498;10.390;2024-03-22T08:03:31;97617.64;;;19.47;40.56
86584;BME280;77229;50.498;10.390;2024-03-22T08:06:02;97616.09;;;19.48;40.58
86584;BME280;77229;50.498;10.390;2024-03-22T08:08:31;97614.81;;;19.48;40.61
86584;BME280;77229;50.498;10.390;2024-03-22T08:11:02;97610.92;;;19.48;40.65
86584;BME280;77229;50.498;10.390;2024-03-22T08:13:32;97607.25;;;19.48;40.69
86584;BME280;77229;50.498;10.390;2024-03-22T08:16:04;97606.86;;;19.48;40.75
86584;BME280;77229;50.498;10.390;2024-03-22T08:18:36;97611.42;;;19.48;40.82
86584;BME280;77229;50.498;10.390;2024-03-22T08:21:05;97611.64;;;19.48;40.88
86584;BME280;77229;50.498;10.390;2024-03-22T08:23:35;97611.26;;;19.48;40.93
86584;BME280;77229;50.498;10.390;2024-03-22T08:26:06;97607.23;;;19.49;40.96
86584;BME280;77229;50.498;10.390;2024-03-22T08:28:36;97605.12;;;19.49;40.99
86584;BME280;77229;50.498;10.390;2024-03-22T08:31:07;97598.89;;;19.49;41.04
86584;BME280;77229;50.498;10.390;2024-03-22T08:33:38;97601.23;;;19.49;41.07
86584;BME280;77229;50.498;10.390;2024-03-22T08:36:12;97594.88;;;19.49;41.15
86584;BME280;77229;50.498;10.390;2024-03-22T08:38:39;97588.62;;;19.49;41.19
86584;BME280;77229;50.498;10.390;2024-03-22T08:41:12;97584.20;;;19.49;41.24
86584;BME280;77229;50.498;10.390;2024-03-22T08:43:40;97582.09;;;19.49;41.28
86584;BME280;77229;50.498;10.390;2024-03-22T08:46:12;97581.09;;;19.49;41.37
86584;BME280;77229;50.498;10.390;2024-03-22T08:48:41;97581.44;;;19.50;41.42
86584;BME280;77229;50.498;10.390;2024-03-22T08:51:12;97580.48;;;19.49;41.46
86584;BME280;77229;50.498;10.390;2024-03-22T08:53:41;97576.03;;;19.50;41.51
86584;BME280;77229;50.498;10.390;2024-03-22T08:56:12;97573.59;;;19.50;41.52
86584;BME280;77229;50.498;10.390;2024-03-22T08:58:42;97575.21;;;19.50;41.57
86584;BME280;77229;50.498;10.390;2024-03-22T09:01:15;97570.98;;;19.50;41.58
86584;BME280;77229;50.498;10.390;2024-03-22T09:03:47;97569.59;;;19.51;41.61
86584;BME280;77229;50.498;10.390;2024-03-22T09:06:14;97566.66;;;19.51;41.68
86584;BME280;77229;50.498;10.390;2024-03-22T09:08:45;97566.82;;;19.51;41.70
86584;BME280;77229;50.498;10.390;2024-03-22T09:11:16;97562.81;;;19.51;41.74
86584;BME280;77229;50.498;10.390;2024-03-22T09:13:53;97562.04;;;19.51;41.76
86584;BME280;77229;50.498;10.390;2024-03-22T09:16:16;97558.62;;;19.51;41.79
86584;BME280;77229;50.498;10.390;2024-03-22T09:18:48;97558.37;;;19.51;41.83
86584;BME280;77229;50.498;10.390;2024-03-22T09:21:18;97556.84;;;19.52;41.85
86584;BME280;77229;50.498;10.390;2024-03-22T09:23:47;97551.67;;;19.52;41.91
86584;BME280;77229;50.498;10.390;2024-03-22T09:26:18;97546.62;;;19.52;41.92
86584;BME280;77229;50.498;10.390;2024-03-22T09:28:51;97543.78;;;19.52;41.94
86584;BME280;77229;50.498;10.390;2024-03-22T09:31:19;97540.34;;;19.53;41.97
86584;BME280;77229;50.498;10.390;2024-03-22T09:33:50;97538.73;;;19.53;41.99
86584;BME280;77229;50.498;10.390;2024-03-22T09:36:21;97534.98;;;19.54;42.01
86584;BME280;77229;50.498;10.390;2024-03-22T09:38:51;97534.67;;;19.55;42.04
86584;BME280;77229;50.498;10.390;2024-03-22T09:41:24;97529.45;;;19.56;42.05
86584;BME280;77229;50.498;10.390;2024-03-22T09:43:52;97523.98;;;19.56;42.05
86584;BME280;77229;50.498;10.390;2024-03-22T09:46:22;97522.26;;;19.57;42.07
86584;BME280;77229;50.498;10.390;2024-03-22T09:48:54;97521.05;;;19.57;42.12
86584;BME280;77229;50.498;10.390;2024-03-22T09:51:24;97519.59;;;19.58;42.13
86584;BME280;77229;50.498;10.390;2024-03-22T09:53:53;97517.27;;;19.58;42.16
86584;BME280;77229;50.498;10.390;2024-03-22T09:56:25;97515.97;;;19.59;42.16
86584;BME280;77229;50.498;10.390;2024-03-22T09:58:53;97512.20;;;19.60;42.19
86584;BME280;77229;50.498;10.390;2024-03-22T10:01:26;97504.80;;;19.60;42.21
86584;BME280;77229;50.498;10.390;2024-03-22T10:03:56;97496.06;;;19.60;42.25
86584;BME280;77229;50.498;10.390;2024-03-22T10:06:26;97499.12;;;19.60;42.27
86584;BME280;77229;50.498;10.390;2024-03-22T10:08:58;97497.95;;;19.61;42.30
86584;BME280;77229;50.498;10.390;2024-03-22T10:11:27;97490.27;;;19.61;42.33
86584;BME280;77229;50.498;10.390;2024-03-22T10:13:56;97490.61;;;19.62;42.35
86584;BME280;77229;50.498;10.390;2024-03-22T10:16:32;97490.73;;;19.63;42.37
86584;BME280;77229;50.498;10.390;2024-03-22T10:18:59;97487.61;;;19.63;42.41
86584;BME280;77229;50.498;10.390;2024-03-22T10:21:31;97478.27;;;19.63;42.45
86584;BME280;77229;50.498;10.390;2024-03-22T10:24:01;97480.98;;;19.64;42.46
86584;BME280;77229;50.498;10.390;2024-03-22T10:26:29;97478.31;;;19.64;42.49
86584;BME280;77229;50.498;10.390;2024-03-22T10:28:59;97476.33;;;19.65;42.52
86584;BME280;77229;50.498;10.390;2024-03-22T10:31:29;97474.77;;;19.65;42.53
86584;BME280;77229;50.498;10.390;2024-03-22T10:34:02;97467.02;;;19.66;42.56
86584;BME280;77229;50.498;10.390;2024-03-22T10:36:33;97460.23;;;19.66;42.58
86584;BME280;77229;50.498;10.390;2024-03-22T10:39:03;97459.23;;;19.67;42.60
86584;BME280;77229;50.498;10.390;2024-03-22T10:41:32;97453.09;;;19.68;42.63
86584;BME280;77229;50.498;10.390;2024-03-22T10:44:03;97454.97;;;19.69;42.67
86584;BME280;77229;50.498;10.390;2024-03-22T10:46:33;97449.75;;;19.69;42.67
86584;BME280;77229;50.498;10.390;2024-03-22T10:49:05;97449.67;;;19.70;42.69
86584;BME280;77229;50.498;10.390;2024-03-22T10:51:35;97441.72;;;19.70;42.74
86584;BME280;77229;50.498;10.390;2024-03-22T10:54:06;97442.89;;;19.71;42.75
86584;BME280;77229;50.498;10.390;2024-03-22T10:56:35;97440.12;;;19.72;42.77
86584;BME280;77229;50.498;10.390;2024-03-22T10:59:06;97436.88;;;19.73;42.81
86584;BME280;77229;50.498;10.390;2024-03-22T11:01:38;97436.28;;;19.74;42.84
86584;BME280;77229;50.498;10.390;2024-03-22T11:04:11;97429.44;;;19.74;42.87
86584;BME280;77229;50.498;10.390;2024-03-22T11:06:38;97426.14;;;19.76;42.92
86584;BME280;77229;50.498;10.390;2024-03-22T11:09:08;97424.03;;;19.77;42.97
86584;BME280;77229;50.498;10.390;2024-03-22T11:11:41;97415.45;;;19.78;43.00
86584;BME280;77229;50.498;10.390;2024-03-22T11:14:09;97409.71;;;19.80;43.01
86584;BME280;77229;50.498;10.390;2024-03-22T11:16:42;97404.38;;;19.80;43.02
86584;BME280;77229;50.498;10.390;2024-03-22T11:19:12;97402.66;;;19.81;43.08
86584;BME280;77229;50.498;10.390;2024-03-22T11:21:40;97391.40;;;19.82;43.10
86584;BME280;77229;50.498;10.390;2024-03-22T11:24:12;97387.62;;;19.84;43.13
86584;BME280;77229;50.498;10.390;2024-03-22T11:26:41;97388.06;;;19.85;43.15
86584;BME280;77229;50.498;10.390;2024-03-22T11:29:11;97386.57;;;19.86;43.21
86584;BME280;77229;50.498;10.390;2024-03-22T11:31:43;97380.06;;;19.86;43.25
86584;BME280;77229;50.498;10.390;2024-03-22T11:34:13;97376.14;;;19.87;43.28
86584;BME280;77229;50.498;10.390;2024-03-22T11:36:43;97378.64;;;19.89;43.32
86584;BME280;77229;50.498;10.390;2024-03-22T11:39:14;97369.86;;;19.90;43.34
86584;BME280;77229;50.498;10.390;2024-03-22T11:41:44;97364.77;;;19.91;43.39
86584;BME280;77229;50.498;10.390;2024-03-22T11:44:15;97358.27;;;19.93;43.39
86584;BME280;77229;50.498;10.390;2024-03-22T11:46:47;97351.75;;;19.94;43.47
86584;BME280;77229;50.498;10.390;2024-03-22T11:49:17;97349.75;;;19.96;43.51
86584;BME280;77229;50.498;10.390;2024-03-22T11:51:46;97349.68;;;19.97;43.55
86584;BME280;77229;50.498;10.390;2024-03-22T11:54:19;97344.85;;;19.98;43.56
86584;BME280;77229;50.498;10.390;2024-03-22T11:56:48;97339.88;;;19.99;43.60
86584;BME280;77229;50.498;10.390;2024-03-22T11:59:20;97343.81;;;20.01;43.59
86584;BME280;77229;50.498;10.390;2024-03-22T12:01:51;97341.66;;;20.02;43.68
86584;BME280;77229;50.498;10.390;2024-03-22T12:04:20;97333.84;;;20.03;43.73
86584;BME280;77229;50.498;10.390;2024-03-22T12:06:49;97329.28;;;20.04;43.76
86584;BME280;77229;50.498;10.390;2024-03-22T12:09:20;97327.99;;;20.06;43.85
86584;BME280;77229;50.498;10.390;2024-03-22T12:11:50;97325.21;;;20.07;43.88
86584;BME280;77229;50.498;10.390;2024-03-22T12:14:21;97321.02;;;20.08;43.90
86584;BME280;77229;50.498;10.390;2024-03-22T12:16:52;97313.68;;;20.09;43.92
86584;BME280;77229;50.498;10.390;2024-03-22T12:19:22;97310.77;;;20.11;43.90
86584;BME280;77229;50.498;10.390;2024-03-22T12:21:53;97302.59;;;20.12;43.96
86584;BME280;77229;50.498;10.390;2024-03-22T12:24:24;97302.93;;;20.12;44.01
86584;BME280;77229;50.498;10.390;2024-03-22T12:26:55;97299.69;;;20.14;44.02
86584;BME280;77229;50.498;10.390;2024-03-22T12:29:25;97292.56;;;20.14;44.07
86584;BME280;77229;50.498;10.390;2024-03-22T12:31:56;97289.75;;;20.15;44.08
86584;BME280;77229;50.498;10.390;2024-03-22T12:34:27;97284.42;;;20.17;44.11
86584;BME280;77229;50.498;10.390;2024-03-22T12:37:00;97277.44;;;20.17;44.15
86584;BME280;77229;50.498;10.390;2024-03-22T12:39:29;97272.05;;;20.19;44.14
86584;BME280;77229;50.498;10.390;2024-03-22T12:41:59;97268.03;;;20.19;44.23
86584;BME280;77229;50.498;10.390;2024-03-22T12:44:30;97264.96;;;20.21;44.25
86584;BME280;77229;50.498;10.390;2024-03-22T12:47:00;97268.17;;;20.23;44.27
86584;BME280;77229;50.498;10.390;2024-03-22T12:49:31;97266.84;;;20.24;44.30
86584;BME280;77229;50.498;10.390;2024-03-22T12:52:02;97260.36;;;20.25;44.28
86584;BME280;77229;50.498;10.390;2024-03-22T12:54:32;97248.95;;;20.26;44.34
86584;BME280;77229;50.498;10.390;2024-03-22T12:57:03;97242.47;;;20.27;44.36
86584;BME280;77229;50.498;10.390;2024-03-22T12:59:33;97242.09;;;20.28;44.36
86584;BME280;77229;50.498;10.390;2024-03-22T13:02:04;97235.94;;;20.30;44.38
86584;BME280;77229;50.498;10.390;2024-03-22T13:04:33;97230.66;;;20.30;44.43
86584;BME280;77229;50.498;10.390;2024-03-22T13:07:04;97226.52;;;20.32;44.45